Time;durP1;ratioP1;P1;durP2;ratioP2;P2;SDS_P1;SDS_P2;PMS_P1;PMS_P2;Temp;Humidity;BMP_temperature;BMP_pressure;BME280_temperature;BME280_humidity;BME280_pressure;Samples;Min_cycle;Max_cycle;Signal;HPM_P1;HPM_P2
2022/06/11 00:00:46;;;;;;;4.07;3.10;;;19.90;96.60;;;;;;5091397;28;20448;-69
2022/06/11 00:03:12;;;;;;;2.70;2.53;;;19.90;96.60;;;;;;5082546;28;20461;-69
2022/06/11 00:05:39;;;;;;;3.50;3.20;;;19.80;96.60;;;;;;5070508;28;20701;-68
2022/06/11 00:08:05;;;;;;;3.33;3.03;;;19.80;97.20;;;;;;5070822;28;20445;-70
2022/06/11 00:10:31;;;;;;;3.37;2.87;;;19.80;96.80;;;;;;5077461;28;20452;-70
2022/06/11 00:12:57;;;;;;;3.20;2.60;;;19.80;96.80;;;;;;5083912;28;20454;-70
2022/06/11 00:15:23;;;;;;;2.87;2.67;;;19.70;96.70;;;;;;5073441;28;20583;-69
2022/06/11 00:17:48;;;;;;;2.87;2.67;;;19.60;96.80;;;;;;5067406;28;20281;-69
2022/06/11 00:20:15;;;;;;;4.20;3.00;;;19.60;96.90;;;;;;5084798;28;20709;-70
2022/06/11 00:22:41;;;;;;;2.83;2.63;;;19.60;97.00;;;;;;5081761;28;20621;-69
2022/06/11 00:25:07;;;;;;;3.10;2.80;;;19.60;97.00;;;;;;5054318;28;20458;-69
2022/06/11 00:27:33;;;;;;;2.90;2.70;;;19.60;96.90;;;;;;5065882;28;20462;-69
2022/06/11 00:29:59;;;;;;;5.00;2.67;;;19.60;97.10;;;;;;5071965;28;20511;-69
2022/06/11 00:32:25;;;;;;;3.73;3.23;;;19.60;97.00;;;;;;5085363;28;20858;-69
2022/06/11 00:34:50;;;;;;;2.60;2.40;;;19.50;97.00;;;;;;5082360;28;20215;-69
2022/06/11 00:37:18;;;;;;;2.63;2.43;;;19.50;97.10;;;;;;5070128;28;20246;-70
2022/06/11 00:39:45;;;;;;;3.83;2.77;;;19.50;97.50;;;;;;5079204;28;20337;-70
2022/06/11 00:42:19;;;;;;;2.97;2.63;;;19.40;97.10;;;;;;5085941;28;20445;-69
2022/06/11 00:44:45;;;;;;;5.23;2.80;;;19.40;97.10;;;;;;5074202;28;20466;-69
2022/06/11 00:47:17;;;;;;;2.80;2.60;;;19.40;97.10;;;;;;5071213;28;20458;-70
2022/06/11 00:50:09;;;;;;;3.47;2.63;;;19.40;97.10;;;;;;5079855;28;20448;-70
2022/06/11 00:52:42;;;;;;;3.13;2.80;;;19.40;97.10;;;;;;5054884;28;20492;-68
2022/06/11 00:55:18;;;;;;;3.40;2.67;;;19.30;97.30;;;;;;5055848;28;20522;-69
2022/06/11 00:58:07;;;;;;;3.90;2.80;;;19.30;97.30;;;;;;5058747;28;20452;-70
2022/06/11 01:00:41;;;;;;;5.07;3.07;;;19.30;97.30;;;;;;5086121;28;20472;-69
2022/06/11 01:03:12;;;;;;;2.60;2.40;;;19.30;97.40;;;;;;5072523;28;21017;-68
2022/06/11 01:05:41;;;;;;;3.10;2.80;;;19.20;97.40;;;;;;5055934;28;21109;-70
2022/06/11 01:09:01;;;;;;;3.90;2.90;;;19.20;97.40;;;;;;5075682;28;20806;-69
2022/06/11 01:11:32;;;;;;;4.37;2.80;;;19.20;97.40;;;;;;5038878;28;20596;-70
2022/06/11 01:14:15;;;;;;;2.70;2.50;;;19.10;97.40;;;;;;5027778;28;20443;-69
2022/06/11 01:16:49;;;;;;;2.73;2.53;;;19.00;97.60;;;;;;5041577;28;20467;-69
2022/06/11 01:19:35;;;;;;;5.00;2.83;;;18.90;97.70;;;;;;5075263;28;20440;-70
2022/06/11 01:22:28;;;;;;;3.53;3.00;;;18.90;97.70;;;;;;5067676;28;20452;-70
2022/06/11 01:25:15;;;;;;;2.53;2.33;;;18.90;97.60;;;;;;5078576;28;20460;-68
2022/06/11 01:27:53;;;;;;;12.07;2.90;;;18.90;97.70;;;;;;5076311;28;20520;-69
2022/06/11 01:30:40;;;;;;;3.07;2.87;;;18.90;97.70;;;;;;5082295;28;20451;-69
2022/06/11 01:33:12;;;;;;;3.47;2.53;;;18.90;97.70;;;;;;5076361;28;20462;-68
2022/06/11 01:35:56;;;;;;;4.53;3.23;;;18.80;97.70;;;;;;5068536;28;20590;-70
2022/06/11 01:38:28;;;;;;;3.33;2.93;;;18.80;97.70;;;;;;5068459;28;20552;-69
2022/06/11 01:41:12;;;;;;;3.63;2.80;;;18.70;97.90;;;;;;5083657;28;20457;-69
2022/06/11 01:43:42;;;;;;;4.43;2.63;;;18.40;98.30;;;;;;5068578;28;21165;-69
2022/06/11 01:46:19;;;;;;;3.20;2.80;;;18.50;98.40;;;;;;5048802;28;20889;-70
2022/06/11 01:49:03;;;;;;;3.40;3.10;;;18.50;98.50;;;;;;5076064;28;20972;-70
2022/06/11 01:51:51;;;;;;;3.40;3.10;;;18.30;98.60;;;;;;5077885;28;20984;-70
2022/06/11 01:54:30;;;;;;;3.07;2.87;;;18.40;99.00;;;;;;5089916;28;20467;-70
2022/06/11 01:57:36;;;;;;;3.60;3.30;;;18.40;98.80;;;;;;5051996;28;21002;-70
2022/06/11 02:00:11;;;;;;;3.50;3.17;;;18.40;98.70;;;;;;5047471;28;20823;-68
2022/06/11 02:02:55;;;;;;;5.00;2.90;;;18.50;98.70;;;;;;5083507;28;20527;-70
2022/06/11 02:05:40;;;;;;;3.23;2.97;;;18.50;98.70;;;;;;5087861;28;20459;-70
2022/06/11 02:08:17;;;;;;;3.40;2.80;;;18.50;98.80;;;;;;5087318;28;20448;-72
2022/06/11 02:11:03;;;;;;;5.00;3.23;;;18.50;98.90;;;;;;5083007;28;20488;-70
2022/06/11 02:13:44;;;;;;;3.13;2.93;;;18.50;99.10;;;;;;5075403;28;20519;-69
2022/06/11 02:16:10;;;;;;;3.03;2.83;;;18.50;98.90;;;;;;5070444;28;20453;-69
2022/06/11 02:18:38;;;;;;;4.20;2.83;;;18.50;99.00;;;;;;5073952;28;20992;-69
2022/06/11 02:21:09;;;;;;;2.83;2.63;;;18.50;98.90;;;;;;5056078;28;20784;-70
2022/06/11 02:23:37;;;;;;;2.90;2.70;;;18.50;99.00;;;;;;5070010;28;21036;-70
2022/06/11 02:26:11;;;;;;;2.77;2.57;;;18.50;99.00;;;;;;5083689;28;20487;-70
2022/06/11 02:28:40;;;;;;;4.50;3.47;;;18.50;98.90;;;;;;5069069;28;21074;-69
2022/06/11 02:31:11;;;;;;;3.33;3.03;;;18.50;99.20;;;;;;5075982;28;20460;-71
2022/06/11 02:33:37;;;;;;;3.43;3.10;;;18.50;99.10;;;;;;5049680;28;20469;-69
2022/06/11 02:36:24;;;;;;;4.47;2.87;;;18.50;99.10;;;;;;5061974;28;20470;-69
2022/06/11 02:38:50;;;;;;;3.03;2.83;;;18.50;99.40;;;;;;5060438;28;20536;-69
2022/06/11 02:41:26;;;;;;;3.37;3.07;;;18.50;99.40;;;;;;5068787;28;20437;-69
2022/06/11 02:43:53;;;;;;;3.13;2.83;;;18.40;99.40;;;;;;5072770;28;20461;-69
2022/06/11 02:49:25;;;;;;;3.60;2.90;;;18.40;99.30;;;;;;5066154;28;20893;-70
2022/06/11 02:51:54;;;;;;;2.63;2.50;;;18.40;99.40;;;;;;5079561;28;20913;-70
2022/06/11 02:54:21;;;;;;;6.10;3.30;;;18.40;99.50;;;;;;5085990;28;20460;-70
2022/06/11 02:56:49;;;;;;;4.47;2.90;;;18.40;99.60;;;;;;5066348;28;20450;-69
2022/06/11 02:59:15;;;;;;;3.43;3.13;;;18.40;99.60;;;;;;5068595;28;20517;-70
2022/06/11 03:01:41;;;;;;;3.17;2.97;;;18.40;99.60;;;;;;5089559;28;21003;-70
2022/06/11 03:04:07;;;;;;;3.20;2.90;;;18.40;99.70;;;;;;5088669;28;20218;-72
2022/06/11 03:06:34;;;;;;;3.30;3.10;;;18.40;99.80;;;;;;5072562;28;20465;-69
2022/06/11 03:09:00;;;;;;;3.93;3.00;;;18.40;99.80;;;;;;5068546;28;20817;-69
2022/06/11 03:11:26;;;;;;;3.50;3.20;;;18.40;99.90;;;;;;5075009;28;20454;-69
2022/06/11 03:13:52;;;;;;;4.50;3.23;;;18.40;99.90;;;;;;5050935;28;20582;-70
2022/06/11 03:16:18;;;;;;;3.73;3.43;;;18.40;99.90;;;;;;5071313;28;20462;-66
2022/06/11 03:18:44;;;;;;;3.40;3.10;;;18.40;99.90;;;;;;5074767;28;20934;-70
2022/06/11 03:21:11;;;;;;;4.10;3.70;;;18.40;99.90;;;;;;5084035;28;20225;-70
2022/06/11 03:23:36;;;;;;;3.70;3.40;;;18.30;99.90;;;;;;5049324;28;20207;-70
2022/06/11 03:26:02;;;;;;;3.83;2.97;;;18.30;99.90;;;;;;5084453;28;20445;-69
2022/06/11 03:28:29;;;;;;;5.50;3.77;;;18.30;99.90;;;;;;5092215;28;20218;-68
2022/06/11 03:30:56;;;;;;;3.53;3.27;;;18.30;99.90;;;;;;5090420;28;20488;-69
2022/06/11 03:33:24;;;;;;;3.90;3.57;;;18.30;99.90;;;;;;5073577;28;20836;-69
2022/06/11 03:35:50;;;;;;;3.40;3.20;;;18.30;99.90;;;;;;5071309;28;20953;-69
2022/06/11 03:38:17;;;;;;;3.80;3.50;;;18.30;99.90;;;;;;5073935;28;20995;-69
2022/06/11 03:40:43;;;;;;;3.13;2.93;;;18.30;99.90;;;;;;5080009;28;20457;-69
2022/06/11 03:43:10;;;;;;;3.50;3.20;;;18.30;99.90;;;;;;5062829;28;20468;-69
2022/06/11 03:45:36;;;;;;;3.73;3.43;;;18.30;99.90;;;;;;5072283;28;20558;-70
2022/06/11 03:48:03;;;;;;;4.87;4.47;;;18.30;99.90;;;;;;5081359;28;20618;-70
2022/06/11 03:50:34;;;;;;;5.90;4.10;;;18.30;99.90;;;;;;5082038;28;21045;-70
2022/06/11 03:53:00;;;;;;;4.73;4.10;;;18.30;99.90;;;;;;5086853;28;20552;-69
2022/06/11 03:55:26;;;;;;;3.97;3.67;;;18.30;99.90;;;;;;5090829;28;20540;-68
2022/06/11 03:57:53;;;;;;;4.70;4.07;;;18.30;99.90;;;;;;5063405;28;20215;-69
2022/06/11 04:03:09;;;;;;;4.70;4.17;;;18.20;99.90;;;;;;5092968;28;20476;-69
2022/06/11 04:05:36;;;;;;;4.43;3.70;;;18.20;99.90;;;;;;5082941;28;20522;-69
2022/06/11 04:08:03;;;;;;;4.37;3.30;;;18.20;99.90;;;;;;5071535;28;20975;-68
2022/06/11 04:10:28;;;;;;;4.30;3.73;;;18.10;99.90;;;;;;5071952;28;20458;-69
2022/06/11 04:12:54;;;;;;;4.27;3.97;;;18.10;99.90;;;;;;5077761;28;20465;-69
2022/06/11 04:15:20;;;;;;;3.57;3.27;;;18.10;99.90;;;;;;5088246;28;20222;-69
2022/06/11 04:17:46;;;;;;;3.13;2.93;;;18.10;99.90;;;;;;5064573;28;20231;-67
2022/06/11 04:20:14;;;;;;;5.07;3.50;;;18.10;99.90;;;;;;5052638;28;20453;-71
2022/06/11 04:22:41;;;;;;;4.20;3.60;;;18.10;99.90;;;;;;5075480;28;20276;-68
2022/06/11 04:25:08;;;;;;;3.07;2.80;;;18.10;99.90;;;;;;5066427;28;20497;-70
2022/06/11 04:27:34;;;;;;;5.10;3.10;;;18.10;99.90;;;;;;5074183;28;20461;-68
2022/06/11 04:30:00;;;;;;;3.40;3.10;;;18.10;99.90;;;;;;5078398;28;20449;-69
2022/06/11 04:32:28;;;;;;;3.00;2.70;;;18.10;99.90;;;;;;5071959;28;20284;-71
2022/06/11 04:34:55;;;;;;;4.40;3.30;;;18.10;99.90;;;;;;5071315;28;20473;-72
2022/06/11 04:37:23;;;;;;;5.37;4.00;;;18.20;99.90;;;;;;5070981;28;20474;-69
2022/06/11 04:39:51;;;;;;;3.83;3.60;;;18.20;99.90;;;;;;5053642;28;20496;-69
2022/06/11 04:42:18;;;;;;;3.80;3.60;;;18.20;99.90;;;;;;5068698;28;20481;-69
2022/06/11 04:44:45;;;;;;;3.37;3.07;;;18.20;99.90;;;;;;5076744;28;20496;-70
2022/06/11 04:47:13;;;;;;;3.20;2.90;;;18.20;99.90;;;;;;5070483;28;21028;-68
2022/06/11 04:49:40;;;;;;;4.03;3.63;;;18.20;99.90;;;;;;5075789;28;20454;-69
2022/06/11 04:52:06;;;;;;;3.80;3.50;;;18.30;99.90;;;;;;5090727;28;20591;-70
2022/06/11 04:54:32;;;;;;;4.03;3.70;;;18.30;99.90;;;;;;5066181;28;20449;-69
2022/06/11 04:56:58;;;;;;;4.43;3.57;;;18.30;99.90;;;;;;5069885;28;20452;-69
2022/06/11 04:59:24;;;;;;;3.57;3.33;;;18.30;99.90;;;;;;5071633;28;20227;-69
2022/06/11 05:01:50;;;;;;;3.70;3.30;;;18.40;99.90;;;;;;5083939;28;20461;-69
2022/06/11 05:04:16;;;;;;;4.40;3.60;;;18.40;99.90;;;;;;5070087;28;20454;-70
2022/06/11 05:06:45;;;;;;;4.43;3.37;;;18.40;99.90;;;;;;5061939;28;20217;-69
2022/06/11 05:09:16;;;;;;;3.37;3.17;;;18.50;99.90;;;;;;5085900;28;20445;-68
2022/06/11 05:11:42;;;;;;;12.20;3.30;;;18.50;99.90;;;;;;5075370;28;20570;-70
2022/06/11 05:14:07;;;;;;;4.00;3.60;;;18.50;99.90;;;;;;5089270;28;20480;-70
2022/06/11 05:16:35;;;;;;;4.27;3.50;;;18.60;99.90;;;;;;5074724;28;20492;-70
2022/06/11 05:19:01;;;;;;;3.93;3.60;;;18.60;99.90;;;;;;5052388;28;20231;-69
2022/06/11 05:21:27;;;;;;;3.67;3.37;;;18.60;99.90;;;;;;5088505;28;20455;-69
2022/06/11 05:23:53;;;;;;;4.47;3.60;;;18.70;99.90;;;;;;5078949;28;20591;-69
2022/06/11 05:26:28;;;;;;;3.90;3.60;;;18.70;99.90;;;;;;5056888;28;20228;-69
2022/06/11 05:28:54;;;;;;;3.90;3.50;;;18.70;99.90;;;;;;5084167;28;20239;-69
2022/06/11 05:31:19;;;;;;;4.80;4.10;;;18.80;99.90;;;;;;5090620;28;21375;-70
2022/06/11 05:33:45;;;;;;;3.70;3.40;;;18.80;99.90;;;;;;5090695;28;20250;-69
2022/06/11 05:36:13;;;;;;;3.77;3.47;;;18.80;99.90;;;;;;5082347;28;20223;-69
2022/06/11 05:38:40;;;;;;;3.43;3.13;;;18.90;99.90;;;;;;5073458;28;20225;-70
2022/06/11 05:41:06;;;;;;;3.67;3.37;;;18.90;99.90;;;;;;5089503;28;20447;-70
2022/06/11 05:43:32;;;;;;;4.83;4.27;;;18.90;99.90;;;;;;5087108;28;20457;-68
2022/06/11 05:45:59;;;;;;;4.00;3.60;;;19.00;99.90;;;;;;5070028;28;20218;-69
2022/06/11 05:48:30;;;;;;;3.10;2.90;;;19.00;99.90;;;;;;5081614;28;20298;-69
2022/06/11 05:50:57;;;;;;;3.87;3.57;;;19.00;99.90;;;;;;5064726;28;20463;-70
2022/06/11 05:53:25;;;;;;;4.07;3.40;;;19.00;99.90;;;;;;5086900;28;20471;-69
2022/06/11 05:55:52;;;;;;;3.90;3.50;;;19.10;99.90;;;;;;5087143;28;20474;-70
2022/06/11 05:58:25;;;;;;;3.97;3.67;;;19.10;99.90;;;;;;5073843;28;20989;-69
2022/06/11 06:00:55;;;;;;;3.47;3.27;;;19.10;99.90;;;;;;5073013;28;20470;-70
2022/06/11 06:03:20;;;;;;;4.90;3.70;;;19.20;99.90;;;;;;5067151;28;20986;-71
2022/06/11 06:05:46;;;;;;;3.73;3.30;;;19.20;99.90;;;;;;5067894;28;20481;-70
2022/06/11 06:08:12;;;;;;;3.47;3.17;;;19.20;99.90;;;;;;5068634;28;20222;-69
2022/06/11 06:10:38;;;;;;;6.50;4.17;;;19.20;99.90;;;;;;5068454;28;20357;-70
2022/06/11 06:13:45;;;;;;;3.93;3.63;;;19.30;99.90;;;;;;5071530;28;20222;-70
2022/06/11 06:15:52;;;;;;;7.07;3.87;;;19.30;99.90;;;;;;5074699;28;20229;-70
2022/06/11 06:18:19;;;;;;;3.60;3.27;;;19.30;99.90;;;;;;5069464;28;20469;-69
2022/06/11 06:20:45;;;;;;;3.70;3.40;;;19.40;99.90;;;;;;5089785;28;20460;-69
2022/06/11 06:23:11;;;;;;;3.87;3.57;;;19.40;99.90;;;;;;5073634;28;20454;-70
2022/06/11 06:25:37;;;;;;;4.27;3.00;;;19.40;99.90;;;;;;5069407;28;20458;-70
2022/06/11 06:28:02;;;;;;;4.10;3.77;;;19.40;99.90;;;;;;5068541;28;20624;-69
2022/06/11 06:30:28;;;;;;;3.87;3.67;;;19.50;99.90;;;;;;5080723;28;20230;-70
2022/06/11 06:32:54;;;;;;;4.60;3.57;;;19.50;99.90;;;;;;5088565;28;20298;-68
2022/06/11 06:35:19;;;;;;;4.67;3.70;;;19.60;99.90;;;;;;5075756;28;20230;-69
2022/06/11 06:37:45;;;;;;;4.00;3.60;;;19.60;99.90;;;;;;5089438;28;20234;-69
2022/06/11 06:40:11;;;;;;;6.17;3.73;;;19.70;99.90;;;;;;5080558;28;20219;-71
2022/06/11 06:42:37;;;;;;;4.57;3.70;;;19.70;99.90;;;;;;5089820;28;20219;-70
2022/06/11 06:45:03;;;;;;;3.67;3.37;;;19.80;99.90;;;;;;5052764;28;21010;-70
2022/06/11 06:47:28;;;;;;;3.67;3.37;;;19.80;99.90;;;;;;5070523;28;20223;-70
2022/06/11 06:49:54;;;;;;;6.73;4.40;;;19.80;99.90;;;;;;5082994;28;20454;-70
2022/06/11 06:52:20;;;;;;;5.10;4.00;;;19.90;99.90;;;;;;5074672;28;20234;-69
2022/06/11 06:54:46;;;;;;;3.70;3.40;;;19.90;99.90;;;;;;5081762;28;20224;-70
2022/06/11 06:57:12;;;;;;;6.00;2.90;;;19.90;99.90;;;;;;5049602;28;20848;-74
2022/06/11 06:59:38;;;;;;;4.27;3.50;;;20.00;99.90;;;;;;5074676;28;20226;-68
2022/06/11 07:02:04;;;;;;;4.23;3.87;;;20.00;99.90;;;;;;5088137;28;20584;-67
2022/06/11 07:04:30;;;;;;;4.50;4.10;;;20.10;99.90;;;;;;5067876;28;20458;-69
2022/06/11 07:06:56;;;;;;;4.83;3.90;;;20.10;99.90;;;;;;5062947;28;20494;-69
2022/06/11 07:09:22;;;;;;;5.20;3.93;;;20.10;99.90;;;;;;5063089;28;20581;-69
2022/06/11 07:11:48;;;;;;;3.60;3.30;;;20.20;99.90;;;;;;5060065;28;20309;-68
2022/06/11 07:14:14;;;;;;;4.90;4.40;;;20.20;99.90;;;;;;5090204;28;20302;-69
2022/06/11 07:16:45;;;;;;;4.60;4.20;;;20.30;99.90;;;;;;5091082;28;20484;-67
2022/06/11 07:19:15;;;;;;;4.10;3.70;;;20.30;99.90;;;;;;5071557;28;20269;-69
2022/06/11 07:21:47;;;;;;;3.97;3.60;;;20.30;99.90;;;;;;5065655;28;20448;-71
2022/06/11 07:24:18;;;;;;;4.40;4.00;;;20.40;99.90;;;;;;5074359;28;20449;-70
2022/06/11 07:26:49;;;;;;;5.67;4.30;;;20.40;99.90;;;;;;5059259;28;20584;-71
2022/06/11 07:29:27;;;;;;;4.97;4.37;;;20.50;99.90;;;;;;5085067;28;20513;-69
2022/06/11 07:31:59;;;;;;;5.77;4.33;;;20.60;99.90;;;;;;5070904;28;20579;-70
2022/06/11 07:34:25;;;;;;;4.27;3.87;;;20.70;99.90;;;;;;5074697;28;20519;-68
2022/06/11 07:36:51;;;;;;;7.07;3.87;;;20.80;99.90;;;;;;5084062;28;21006;-68
2022/06/11 07:39:17;;;;;;;4.70;4.30;;;20.80;99.90;;;;;;5081279;28;20452;-69
2022/06/11 07:41:43;;;;;;;6.47;3.80;;;20.90;99.90;;;;;;5078665;28;20219;-68
2022/06/11 07:44:09;;;;;;;3.77;3.40;;;21.00;99.90;;;;;;5074062;28;20445;-68
2022/06/11 07:46:34;;;;;;;3.60;3.30;;;21.00;99.90;;;;;;5054604;28;20456;-70
2022/06/11 07:49:00;;;;;;;4.60;4.20;;;21.10;99.90;;;;;;5086804;28;20218;-69
2022/06/11 07:51:26;;;;;;;6.40;3.60;;;21.20;99.90;;;;;;5081297;28;20229;-73
2022/06/11 07:53:52;;;;;;;2.97;2.77;;;21.20;99.90;;;;;;5056133;28;20212;-69
2022/06/11 07:56:19;;;;;;;3.30;3.00;;;21.30;99.90;;;;;;5082934;28;20214;-68
2022/06/11 07:58:46;;;;;;;3.83;2.93;;;21.40;99.90;;;;;;5077580;28;20212;-68
2022/06/11 08:01:12;;;;;;;3.13;2.93;;;21.40;99.90;;;;;;5079201;28;20523;-70
2022/06/11 08:03:38;;;;;;;4.10;2.90;;;21.50;99.90;;;;;;5069476;28;20533;-69
2022/06/11 08:06:06;;;;;;;3.67;3.27;;;21.60;99.90;;;;;;5077968;28;20221;-69
2022/06/11 08:08:33;;;;;;;4.10;3.63;;;21.70;99.90;;;;;;5074280;28;20839;-70
2022/06/11 08:11:03;;;;;;;3.17;2.80;;;21.80;99.90;;;;;;5071421;28;20520;-69
2022/06/11 08:13:29;;;;;;;4.00;2.67;;;21.90;99.90;;;;;;5068489;28;20856;-69
2022/06/11 08:15:56;;;;;;;3.73;2.97;;;22.10;99.90;;;;;;5072964;28;20456;-71
2022/06/11 08:18:23;;;;;;;5.83;2.80;;;22.20;99.90;;;;;;5073264;28;20452;-69
2022/06/11 08:20:51;;;;;;;3.33;2.97;;;22.20;99.90;;;;;;5071678;28;20518;-69
2022/06/11 08:23:18;;;;;;;2.80;2.60;;;22.30;99.90;;;;;;5089766;28;20452;-70
2022/06/11 08:25:44;;;;;;;2.90;2.70;;;22.30;99.90;;;;;;5084964;28;20483;-69
2022/06/11 08:28:12;;;;;;;4.80;2.80;;;22.30;99.90;;;;;;5059003;28;20448;-70
2022/06/11 08:30:38;;;;;;;5.07;2.40;;;22.30;99.90;;;;;;5077207;28;20464;-70
2022/06/11 08:33:04;;;;;;;2.90;2.17;;;22.40;99.90;;;;;;5071894;28;20521;-71
2022/06/11 08:35:31;;;;;;;2.70;2.43;;;22.60;99.90;;;;;;5070385;28;20234;-71
2022/06/11 08:37:58;;;;;;;2.60;2.27;;;22.70;99.90;;;;;;5075344;28;20532;-71
2022/06/11 08:40:33;;;;;;;2.97;2.00;;;22.90;99.90;;;;;;5053726;28;20457;-72
2022/06/11 08:43:35;;;;;;;2.90;1.70;;;23.00;99.90;;;;;;5068978;28;20454;-69
2022/06/11 08:46:07;;;;;;;2.50;2.37;;;23.10;99.90;;;;;;5052205;28;20485;-69
2022/06/11 08:48:44;;;;;;;5.00;2.20;;;23.20;99.90;;;;;;5070825;28;20449;-70
2022/06/11 08:51:18;;;;;;;3.07;1.80;;;23.30;99.90;;;;;;5076018;28;20449;-71
2022/06/11 08:53:46;;;;;;;3.23;2.13;;;23.40;99.90;;;;;;5078410;28;20860;-72
2022/06/11 08:56:20;;;;;;;1.80;1.70;;;23.50;99.90;;;;;;5086204;28;20479;-71
2022/06/11 08:59:05;;;;;;;1.97;1.87;;;23.60;99.90;;;;;;5073419;28;20527;-69
2022/06/11 09:01:39;;;;;;;2.17;1.97;;;23.70;99.90;;;;;;5080989;28;20511;-69
2022/06/11 09:04:19;;;;;;;1.70;1.53;;;23.80;99.90;;;;;;5087954;28;20459;-70
2022/06/11 09:06:54;;;;;;;3.20;1.50;;;24.00;99.90;;;;;;5080542;28;20829;-70
2022/06/11 09:09:44;;;;;;;1.70;1.50;;;24.00;99.90;;;;;;5087024;28;20457;-71
2022/06/11 09:12:32;;;;;;;3.03;2.07;;;24.20;99.90;;;;;;5087951;28;20466;-69
2022/06/11 09:15:13;;;;;;;1.90;1.80;;;24.30;99.90;;;;;;5066191;28;20468;-69
2022/06/11 09:17:51;;;;;;;3.03;2.10;;;24.60;99.90;;;;;;5051918;28;20461;-70
2022/06/11 09:20:41;;;;;;;2.00;1.90;;;24.80;99.90;;;;;;5087258;28;21006;-69
2022/06/11 09:23:33;;;;;;;4.67;2.03;;;24.90;99.90;;;;;;5083877;28;20441;-69
2022/06/11 09:25:58;;;;;;;1.80;1.70;;;25.10;98.70;;;;;;5095989;28;20479;-69
2022/06/11 09:28:44;;;;;;;3.57;1.90;;;25.20;99.60;;;;;;5073397;28;20484;-69
2022/06/11 09:31:22;;;;;;;1.93;1.77;;;25.20;99.10;;;;;;5089904;28;20218;-69
2022/06/11 09:34:05;;;;;;;1.97;1.60;;;25.20;98.50;;;;;;5067617;28;20510;-72
2022/06/11 09:36:46;;;;;;;1.60;1.50;;;25.20;98.20;;;;;;5084236;28;20482;-69
2022/06/11 09:39:41;;;;;;;1.57;1.47;;;25.20;98.40;;;;;;5050441;28;20450;-70
2022/06/11 09:42:45;;;;;;;1.57;1.47;;;25.30;98.30;;;;;;5053499;28;20488;-69
2022/06/11 09:45:23;;;;;;;2.20;2.10;;;25.50;97.80;;;;;;5083007;28;20452;-68
2022/06/11 09:48:15;;;;;;;2.33;2.10;;;25.50;97.80;;;;;;5068435;28;20514;-68
2022/06/11 09:50:47;;;;;;;1.70;1.60;;;25.60;98.00;;;;;;5077983;28;20463;-69
2022/06/11 09:53:15;;;;;;;4.07;1.83;;;25.80;97.90;;;;;;5072807;28;20925;-69
2022/06/11 09:55:47;;;;;;;3.40;1.90;;;25.90;97.60;;;;;;5085539;28;20460;-68
2022/06/11 09:58:27;;;;;;;2.47;2.10;;;25.90;97.80;;;;;;5069022;28;20464;-69
2022/06/11 10:00:58;;;;;;;1.93;1.53;;;26.10;98.40;;;;;;5069923;28;20464;-69
2022/06/11 10:03:51;;;;;;;4.10;2.30;;;26.10;97.60;;;;;;5088731;28;20845;-69
2022/06/11 10:06:28;;;;;;;1.73;1.63;;;26.10;97.40;;;;;;5072553;28;20980;-71
2022/06/11 10:08:58;;;;;;;1.90;1.80;;;26.30;97.70;;;;;;5090166;28;20455;-68
2022/06/11 10:11:39;;;;;;;2.20;1.97;;;26.50;98.00;;;;;;5072662;28;20460;-68
2022/06/11 10:14:28;;;;;;;3.67;1.70;;;26.60;97.60;;;;;;5079517;28;20463;-70
2022/06/11 10:17:19;;;;;;;2.50;2.23;;;26.80;97.10;;;;;;5059180;28;20214;-68
2022/06/11 10:20:34;;;;;;;2.35;2.08;;;27.10;96.20;;;;;;5080369;28;20274;-69
2022/06/11 10:23:11;;;;;;;1.98;1.80;;;27.20;96.00;;;;;;5011104;28;20216;-69
2022/06/11 10:25:57;;;;;;;2.25;2.13;;;27.30;96.00;;;;;;5056820;28;20589;-69
2022/06/11 10:28:34;;;;;;;2.65;2.08;;;27.40;94.90;;;;;;5061780;28;20211;-69
2022/06/11 10:31:19;;;;;;;2.35;1.77;;;27.50;94.70;;;;;;5060545;28;20348;-75
2022/06/11 10:33:57;;;;;;;2.50;2.30;;;27.40;95.60;;;;;;5065140;28;20305;-71
2022/06/11 10:36:30;;;;;;;2.33;2.13;;;27.40;95.50;;;;;;5069859;28;20690;-71
2022/06/11 10:39:06;;;;;;;3.30;2.03;;;27.50;95.00;;;;;;5070849;28;20683;-72
2022/06/11 10:42:03;;;;;;;2.22;2.00;;;27.60;95.00;;;;;;5053415;28;20241;-70
2022/06/11 10:44:49;;;;;;;1.98;1.85;;;27.70;95.20;;;;;;5066177;28;20312;-71
2022/06/11 10:47:18;;;;;;;2.63;2.33;;;27.70;95.90;;;;;;5075617;28;20773;-71
2022/06/11 10:49:45;;;;;;;3.50;1.85;;;27.80;95.20;;;;;;5084248;28;20360;-71
2022/06/11 10:52:40;;;;;;;2.13;1.73;;;27.80;95.00;;;;;;5071171;28;20721;-71
2022/06/11 10:55:11;;;;;;;2.22;1.77;;;27.80;94.20;;;;;;5065396;28;20762;-71
2022/06/11 10:57:38;;;;;;;1.77;1.58;;;27.80;94.90;;;;;;5068704;28;20248;-73
2022/06/11 11:00:13;;;;;;;2.50;2.30;;;27.80;95.00;;;;;;5063660;28;20234;-70
2022/06/11 11:03:29;;;;;;;2.38;2.10;;;27.90;94.90;;;;;;5072378;28;20673;-72
2022/06/11 11:06:15;;;;;;;3.30;3.00;;;28.00;94.40;;;;;;5071057;28;20301;-71
2022/06/11 11:08:52;;;;;;;3.00;2.72;;;28.10;94.00;;;;;;5063788;28;20220;-71
2022/06/11 11:11:18;;;;;;;2.15;2.05;;;28.20;93.20;;;;;;5089464;28;20226;-75
2022/06/11 11:13:45;;;;;;;2.10;1.90;;;28.20;92.90;;;;;;5069986;28;20567;-72
2022/06/11 11:16:22;;;;;;;2.20;2.00;;;28.20;92.70;;;;;;5075274;28;20667;-71
2022/06/11 11:18:56;;;;;;;2.78;2.58;;;28.20;92.90;;;;;;5067531;28;20240;-70
2022/06/11 11:21:36;;;;;;;2.22;1.80;;;28.20;93.00;;;;;;5086734;28;20575;-71
2022/06/11 11:24:20;;;;;;;2.47;1.88;;;28.20;92.90;;;;;;5049724;28;20216;-70
2022/06/11 11:27:04;;;;;;;2.15;2.00;;;28.20;93.20;;;;;;5076753;28;20243;-69
2022/06/11 11:29:36;;;;;;;5.25;2.90;;;28.40;93.30;;;;;;5069788;28;20233;-70
2022/06/11 11:32:23;;;;;;;3.33;2.17;;;28.60;92.50;;;;;;5076495;28;20236;-68
2022/06/11 11:34:49;;;;;;;1.90;1.80;;;28.60;92.70;;;;;;5070674;28;20235;-70
2022/06/11 11:37:14;;;;;;;1.80;1.70;;;28.80;92.70;;;;;;5076654;28;20305;-69
2022/06/11 11:40:00;;;;;;;4.03;2.10;;;28.80;92.20;;;;;;5071916;28;20297;-70
2022/06/11 11:42:36;;;;;;;1.55;1.50;;;28.90;92.30;;;;;;5063277;28;20247;-69
2022/06/11 11:45:20;;;;;;;1.88;1.77;;;29.10;92.10;;;;;;5081009;28;20828;-70
2022/06/11 11:47:48;;;;;;;2.00;1.90;;;29.30;91.10;;;;;;5076420;28;20238;-71
2022/06/11 11:50:19;;;;;;;1.70;1.40;;;29.40;91.30;;;;;;5071241;28;20242;-70
2022/06/11 11:53:17;;;;;;;2.03;1.60;;;29.40;91.90;;;;;;5076657;28;20234;-69
2022/06/11 11:55:57;;;;;;;2.00;1.63;;;29.50;91.20;;;;;;5074664;28;20318;-70
2022/06/11 11:58:31;;;;;;;3.15;2.10;;;29.70;89.40;;;;;;5091114;28;20233;-71
2022/06/11 12:01:07;;;;;;;1.63;1.52;;;29.80;88.70;;;;;;5083383;28;20220;-70
2022/06/11 12:03:40;;;;;;;2.05;1.73;;;29.70;90.00;;;;;;5086180;28;20713;-69
2022/06/11 12:06:11;;;;;;;1.80;1.70;;;29.80;89.30;;;;;;5061306;28;20222;-69
2022/06/11 12:08:47;;;;;;;1.77;1.67;;;29.70;89.90;;;;;;5070820;28;20245;-69
2022/06/11 12:11:28;;;;;;;1.73;1.58;;;29.70;90.00;;;;;;5070762;28;20702;-70
2022/06/11 12:14:15;;;;;;;3.75;2.13;;;29.80;89.30;;;;;;5062179;28;20242;-69
2022/06/11 12:16:56;;;;;;;1.70;1.60;;;29.80;87.40;;;;;;5059989;28;20646;-70
2022/06/11 12:19:21;;;;;;;2.17;1.60;;;29.80;89.30;;;;;;5084603;28;20225;-69
2022/06/11 12:21:54;;;;;;;3.10;2.08;;;29.80;88.40;;;;;;5081300;28;20705;-70
2022/06/11 12:24:32;;;;;;;2.22;1.67;;;29.80;89.70;;;;;;5074182;28;20237;-70
2022/06/11 12:27:05;;;;;;;2.35;1.50;;;29.80;87.60;;;;;;5062901;28;20250;-71
2022/06/11 12:29:50;;;;;;;2.00;1.90;;;29.70;89.40;;;;;;5082071;28;20311;-69
2022/06/11 12:32:17;;;;;;;1.90;1.80;;;29.80;89.50;;;;;;5059548;28;20663;-70
2022/06/11 12:34:43;;;;;;;1.83;1.73;;;29.90;89.30;;;;;;5075255;28;20228;-69
2022/06/11 12:37:27;;;;;;;2.90;2.17;;;29.90;90.10;;;;;;5070784;28;20222;-69
2022/06/11 12:40:19;;;;;;;2.33;1.95;;;29.80;88.00;;;;;;5076747;28;20229;-70
2022/06/11 12:43:35;;;;;;;2.25;2.15;;;29.50;87.10;;;;;;5064244;28;20706;-69
2022/06/11 12:46:36;;;;;;;1.45;1.38;;;29.40;87.70;;;;;;5023459;28;20230;-68
2022/06/11 12:49:19;;;;;;;1.90;1.80;;;29.50;89.00;;;;;;5034840;28;20215;-69
2022/06/11 12:52:08;;;;;;;1.80;1.70;;;29.50;88.60;;;;;;5084537;28;20305;-70
2022/06/11 12:55:01;;;;;;;2.22;2.00;;;29.60;88.90;;;;;;5066206;28;20213;-69
2022/06/11 12:57:50;;;;;;;1.77;1.67;;;29.70;89.70;;;;;;5042462;28;20258;-70
2022/06/11 13:00:20;;;;;;;1.98;1.88;;;29.80;89.40;;;;;;5063388;28;20226;-69
2022/06/11 13:02:57;;;;;;;2.13;1.80;;;29.90;88.40;;;;;;5077684;28;20212;-69
2022/06/11 13:05:42;;;;;;;2.35;1.80;;;30.00;88.70;;;;;;5072938;28;20277;-70
2022/06/11 13:08:11;;;;;;;2.55;1.90;;;30.00;87.10;;;;;;5076931;28;20239;-69
2022/06/11 13:10:39;;;;;;;2.30;2.00;;;30.00;87.80;;;;;;5071131;28;20224;-69
2022/06/11 13:13:27;;;;;;;1.70;1.60;;;30.00;87.50;;;;;;5083426;28;20232;-68
2022/06/11 13:16:21;;;;;;;1.90;1.80;;;29.90;87.60;;;;;;5069126;28;20227;-69
2022/06/11 13:18:47;;;;;;;1.90;1.80;;;29.90;87.30;;;;;;5065486;28;20227;-70
2022/06/11 13:21:34;;;;;;;3.00;2.03;;;29.80;87.60;;;;;;5092517;28;20228;-69
2022/06/11 13:24:37;;;;;;;2.28;2.17;;;29.80;87.60;;;;;;5086507;28;20352;-71